Time;durP1;ratioP1;P1;durP2;ratioP2;P2;SDS_P1;SDS_P2;PMS_P1;PMS_P2;Temp;Humidity;BMP_temperature;BMP_pressure;BME280_temperature;BME280_humidity;BME280_pressure;Samples;Min_cycle;Max_cycle;Signal;HPM_P1;HPM_P2
2023/09/02 00:00:45;;;;;;;22.45;10.25;;;18.60;99.90;;;;;;5090310;28;20093;-80
2023/09/02 00:03:11;;;;;;;26.50;10.43;;;18.60;99.90;;;;;;5091789;28;20123;-80
2023/09/02 00:05:38;;;;;;;22.10;9.60;;;18.60;99.90;;;;;;5077575;28;20041;-79
2023/09/02 00:08:05;;;;;;;24.73;9.80;;;18.60;99.90;;;;;;5094030;28;20519;-81
2023/09/02 00:10:31;;;;;;;20.27;8.73;;;18.60;99.90;;;;;;5087237;28;20066;-80
2023/09/02 00:12:58;;;;;;;26.52;8.68;;;18.60;99.90;;;;;;5091014;28;20067;-80
2023/09/02 00:15:25;;;;;;;20.80;8.02;;;18.60;99.90;;;;;;5075405;28;20447;-81
2023/09/02 00:17:52;;;;;;;20.80;8.60;;;18.60;99.90;;;;;;5073542;28;20459;-81
2023/09/02 00:20:20;;;;;;;25.25;8.82;;;18.60;99.90;;;;;;5092920;28;20049;-80
2023/09/02 00:22:46;;;;;;;25.08;9.07;;;18.60;99.90;;;;;;5076113;28;20068;-83
2023/09/02 00:25:13;;;;;;;19.48;8.45;;;18.60;99.90;;;;;;5076981;28;20068;-82
2023/09/02 00:27:40;;;;;;;21.45;8.57;;;18.60;99.90;;;;;;5086912;28;20075;-81
2023/09/02 00:30:07;;;;;;;20.17;8.55;;;18.60;99.90;;;;;;5098013;28;20048;-81
2023/09/02 00:32:35;;;;;;;21.83;9.15;;;18.60;99.90;;;;;;5086909;28;20041;-81
2023/09/02 00:35:01;;;;;;;21.42;8.65;;;18.60;99.90;;;;;;5089438;28;20071;-81
2023/09/02 00:37:29;;;;;;;23.27;9.55;;;18.60;99.90;;;;;;5075780;28;20068;-80
2023/09/02 00:39:56;;;;;;;25.48;10.57;;;18.60;99.90;;;;;;5074982;28;20048;-81
2023/09/02 00:42:23;;;;;;;25.23;10.95;;;18.60;99.90;;;;;;5078892;28;20035;-82
2023/09/02 00:44:49;;;;;;;27.33;11.27;;;18.60;99.90;;;;;;5084007;28;20128;-80
2023/09/02 00:47:16;;;;;;;26.30;11.45;;;18.60;99.90;;;;;;5093034;28;20035;-81
2023/09/02 00:49:43;;;;;;;28.60;12.13;;;18.60;99.90;;;;;;5084555;28;20040;-80
2023/09/02 00:52:11;;;;;;;33.50;12.50;;;18.50;99.90;;;;;;5055812;28;20439;-79
2023/09/02 00:54:37;;;;;;;35.42;13.77;;;18.40;99.90;;;;;;5037096;28;20041;-81
2023/09/02 00:57:06;;;;;;;29.55;12.30;;;18.40;99.90;;;;;;5037176;28;20083;-82
2023/09/02 00:59:32;;;;;;;38.10;13.48;;;18.40;99.90;;;;;;5056187;28;20055;-79
2023/09/02 01:02:00;;;;;;;34.78;12.93;;;18.40;99.90;;;;;;5032449;28;20052;-82
2023/09/02 01:04:27;;;;;;;35.45;13.07;;;18.40;99.90;;;;;;5062050;28;20053;-80
2023/09/02 01:06:55;;;;;;;39.60;14.70;;;18.40;99.90;;;;;;5033798;28;20053;-80
2023/09/02 01:09:21;;;;;;;37.33;14.18;;;18.30;99.90;;;;;;5056031;28;20128;-80
2023/09/02 01:11:48;;;;;;;36.00;12.30;;;18.30;99.90;;;;;;5062073;28;20063;-81
2023/09/02 01:14:15;;;;;;;35.10;13.30;;;18.30;99.90;;;;;;5057997;28;20076;-79
2023/09/02 01:16:41;;;;;;;38.42;12.85;;;18.20;99.90;;;;;;5037696;28;20090;-81
2023/09/02 01:19:08;;;;;;;34.85;11.70;;;18.20;99.90;;;;;;5049042;28;20048;-81
2023/09/02 01:21:35;;;;;;;37.65;12.30;;;18.20;99.90;;;;;;5074741;28;20140;-80
2023/09/02 01:24:02;;;;;;;38.20;13.30;;;18.10;99.90;;;;;;5075793;28;20498;-80
2023/09/02 01:26:29;;;;;;;35.92;12.77;;;18.10;99.90;;;;;;5057364;28;20088;-81
2023/09/02 01:28:56;;;;;;;36.35;11.55;;;18.10;99.90;;;;;;5047182;28;20048;-82
2023/09/02 01:31:22;;;;;;;35.30;10.85;;;18.10;99.90;;;;;;5062391;28;20037;-80
2023/09/02 01:33:49;;;;;;;32.35;11.45;;;18.10;99.90;;;;;;5068843;28;20045;-81
2023/09/02 01:36:17;;;;;;;30.88;10.75;;;18.10;99.90;;;;;;5049601;28;20158;-80
2023/09/02 01:38:46;;;;;;;34.40;10.80;;;18.10;99.90;;;;;;5057983;28;20043;-82
2023/09/02 01:41:12;;;;;;;36.13;10.98;;;18.10;99.90;;;;;;5046914;28;20498;-82
2023/09/02 01:43:39;;;;;;;33.28;10.43;;;18.10;99.90;;;;;;5052720;28;20475;-80
2023/09/02 01:46:06;;;;;;;34.15;10.88;;;18.10;99.90;;;;;;5037959;28;20479;-82
2023/09/02 01:48:35;;;;;;;30.27;10.60;;;18.10;99.90;;;;;;5055149;28;20045;-81
2023/09/02 01:51:02;;;;;;;30.20;11.35;;;18.10;99.90;;;;;;5063789;28;20048;-81
2023/09/02 01:53:29;;;;;;;32.40;11.18;;;18.10;99.90;;;;;;5083096;28;20050;-82
2023/09/02 01:55:56;;;;;;;31.02;10.80;;;18.10;99.90;;;;;;5062572;28;20045;-81
2023/09/02 01:58:22;;;;;;;33.47;10.43;;;18.10;99.90;;;;;;5082324;28;20032;-79
2023/09/02 02:00:50;;;;;;;32.35;10.68;;;18.10;99.90;;;;;;5063742;28;20037;-82
2023/09/02 02:03:17;;;;;;;34.65;10.85;;;18.10;99.90;;;;;;5074450;28;20049;-80
2023/09/02 02:05:44;;;;;;;29.08;10.13;;;18.20;99.90;;;;;;5075045;28;20139;-81
2023/09/02 02:08:11;;;;;;;31.40;10.30;;;18.10;99.90;;;;;;5091684;28;20109;-83
2023/09/02 02:10:38;;;;;;;27.95;10.70;;;18.20;99.90;;;;;;5066983;28;20513;-80
2023/09/02 02:13:06;;;;;;;31.20;9.25;;;18.20;99.90;;;;;;5070604;28;20044;-82
2023/09/02 02:15:33;;;;;;;27.75;10.95;;;18.10;99.90;;;;;;5084074;28;20093;-83
2023/09/02 02:18:00;;;;;;;27.35;10.35;;;18.10;99.90;;;;;;5093307;28;20466;-79
2023/09/02 02:20:31;;;;;;;28.05;9.55;;;18.10;99.90;;;;;;5080521;28;20093;-82
2023/09/02 02:22:58;;;;;;;29.30;10.18;;;18.20;99.90;;;;;;5084884;28;20044;-81
2023/09/02 02:25:25;;;;;;;25.48;10.48;;;18.20;99.90;;;;;;5059718;28;20075;-81
2023/09/02 02:27:52;;;;;;;26.65;10.27;;;18.20;99.90;;;;;;5073597;28;20052;-81
2023/09/02 02:30:19;;;;;;;27.50;9.70;;;18.20;99.90;;;;;;5079282;28;20489;-81
2023/09/02 02:32:46;;;;;;;23.45;9.15;;;18.20;99.90;;;;;;5093551;28;20117;-82
2023/09/02 02:35:13;;;;;;;27.55;10.27;;;18.20;99.90;;;;;;5090358;28;20128;-83
2023/09/02 02:37:40;;;;;;;23.90;9.35;;;18.20;99.90;;;;;;5082897;28;20048;-82
2023/09/02 02:40:06;;;;;;;27.52;10.32;;;18.20;99.90;;;;;;5094212;28;20122;-81
2023/09/02 02:42:34;;;;;;;25.70;10.18;;;18.20;99.90;;;;;;5094870;28;20123;-82
2023/09/02 02:45:01;;;;;;;25.90;10.48;;;18.20;99.90;;;;;;5093897;28;20059;-81
2023/09/02 02:47:28;;;;;;;28.90;10.10;;;18.20;99.90;;;;;;5087388;28;20044;-81
2023/09/02 02:49:54;;;;;;;26.67;9.57;;;18.20;99.90;;;;;;5085470;28;20052;-81
2023/09/02 02:52:21;;;;;;;22.85;9.38;;;18.20;99.90;;;;;;5059215;28;20474;-80
2023/09/02 02:54:48;;;;;;;27.40;10.43;;;18.20;99.90;;;;;;5062766;28;20455;-80
2023/09/02 02:57:17;;;;;;;28.27;10.57;;;18.20;99.90;;;;;;5094155;28;20121;-82
2023/09/02 02:59:44;;;;;;;26.13;10.18;;;18.20;99.90;;;;;;5074340;28;20036;-79
2023/09/02 03:02:13;;;;;;;25.35;9.60;;;18.30;99.90;;;;;;5084543;28;20048;-80
2023/09/02 03:04:40;;;;;;;24.42;9.95;;;18.20;99.90;;;;;;5062602;28;20044;-81
2023/09/02 03:07:08;;;;;;;22.73;8.93;;;18.20;99.90;;;;;;5092849;28;20139;-80
2023/09/02 03:09:34;;;;;;;23.10;9.40;;;18.20;99.90;;;;;;5093671;28;20044;-82
2023/09/02 03:12:02;;;;;;;29.05;10.60;;;18.20;99.90;;;;;;5068751;28;20098;-81
2023/09/02 03:14:29;;;;;;;30.30;11.10;;;18.20;99.90;;;;;;5087622;28;20051;-80
2023/09/02 03:19:42;;;;;;;31.23;11.00;;;18.20;99.90;;;;;;5093863;28;20055;-81
2023/09/02 03:22:09;;;;;;;32.60;11.35;;;18.20;99.90;;;;;;5081188;28;20428;-82
2023/09/02 03:24:36;;;;;;;34.40;10.65;;;18.20;99.90;;;;;;5077082;28;20050;-81
2023/09/02 03:29:51;;;;;;;35.75;12.00;;;18.10;99.90;;;;;;5079356;28;20463;-82
2023/09/02 03:32:18;;;;;;;37.55;12.10;;;18.00;99.90;;;;;;5086444;28;20037;-83
2023/09/02 03:34:46;;;;;;;30.80;11.38;;;18.00;99.90;;;;;;5089642;28;20055;-81
2023/09/02 03:37:14;;;;;;;32.40;11.68;;;18.00;99.90;;;;;;5078096;28;20469;-81
2023/09/02 03:39:40;;;;;;;34.35;11.10;;;18.00;99.90;;;;;;5076944;28;20426;-84
2023/09/02 03:42:07;;;;;;;36.08;11.57;;;18.00;99.90;;;;;;5090216;28;20055;-80
2023/09/02 03:44:34;;;;;;;35.88;12.02;;;18.00;99.90;;;;;;5086785;28;20070;-81
2023/09/02 03:47:01;;;;;;;36.10;12.70;;;17.90;99.90;;;;;;5083043;28;20536;-80
2023/09/02 03:49:27;;;;;;;34.80;12.40;;;17.90;99.90;;;;;;5097799;28;20135;-81
2023/09/02 03:51:54;;;;;;;35.33;12.30;;;17.90;99.90;;;;;;5066258;28;20391;-82
2023/09/02 03:54:22;;;;;;;31.38;10.52;;;18.00;99.90;;;;;;5069949;28;20052;-80
2023/09/02 03:56:51;;;;;;;35.42;11.25;;;18.00;99.90;;;;;;5066314;28;20037;-83
2023/09/02 03:59:19;;;;;;;24.60;10.00;;;17.90;99.90;;;;;;5075574;28;20071;-81
2023/09/02 04:01:45;;;;;;;36.65;11.02;;;17.90;99.90;;;;;;5055572;28;20091;-80
2023/09/02 04:04:12;;;;;;;31.02;10.40;;;17.90;99.90;;;;;;5071006;28;20410;-81
2023/09/02 04:06:39;;;;;;;29.40;10.80;;;17.90;99.90;;;;;;5053855;28;20091;-80
2023/09/02 04:09:09;;;;;;;30.50;10.00;;;17.90;99.90;;;;;;5057294;28;20037;-83
2023/09/02 04:11:36;;;;;;;27.60;10.18;;;18.00;99.90;;;;;;5060419;28;20048;-81
2023/09/02 04:14:03;;;;;;;32.35;10.50;;;18.00;99.90;;;;;;5065335;28;20060;-82
2023/09/02 04:16:30;;;;;;;27.80;9.80;;;17.90;99.90;;;;;;5071443;28;20041;-82
2023/09/02 04:19:02;;;;;;;27.83;10.38;;;17.90;99.90;;;;;;5065510;28;20044;-83
2023/09/02 04:21:29;;;;;;;29.10;9.13;;;18.00;99.90;;;;;;5067986;28;20472;-79
2023/09/02 04:23:56;;;;;;;27.08;9.15;;;18.00;99.90;;;;;;5064258;28;20087;-80
2023/09/02 04:26:24;;;;;;;27.48;9.75;;;18.00;99.90;;;;;;5066213;28;20480;-79
2023/09/02 04:28:54;;;;;;;28.52;8.75;;;18.00;99.90;;;;;;5062862;28;20068;-80
2023/09/02 04:31:21;;;;;;;26.67;9.30;;;18.00;99.90;;;;;;5062948;28;20087;-80
2023/09/02 04:33:48;;;;;;;25.27;8.60;;;18.00;99.90;;;;;;5054231;28;20041;-82
2023/09/02 04:36:16;;;;;;;24.85;7.97;;;18.00;99.90;;;;;;5055952;28;20132;-82
2023/09/02 04:41:28;;;;;;;25.83;8.85;;;18.00;99.90;;;;;;5056028;28;20048;-82
2023/09/02 04:43:56;;;;;;;23.65;7.70;;;18.00;99.90;;;;;;5069388;28;20087;-83
2023/09/02 04:46:24;;;;;;;21.90;7.80;;;18.00;99.90;;;;;;5055291;28;20090;-80
2023/09/02 04:48:51;;;;;;;25.98;7.72;;;18.00;99.90;;;;;;5042081;28;20048;-79
2023/09/02 04:51:19;;;;;;;22.92;8.50;;;18.00;99.90;;;;;;5059429;28;20040;-80
2023/09/02 04:53:47;;;;;;;24.23;8.30;;;18.10;99.90;;;;;;5058038;28;20041;-80
2023/09/02 04:56:14;;;;;;;22.20;7.55;;;18.00;99.90;;;;;;5049833;28;20045;-83
2023/09/02 04:58:42;;;;;;;27.58;8.88;;;18.00;99.90;;;;;;5035880;28;20360;-80
2023/09/02 05:01:12;;;;;;;24.85;7.63;;;18.00;99.90;;;;;;5054089;28;20068;-80
2023/09/02 05:03:47;;;;;;;23.55;8.05;;;18.00;99.90;;;;;;5033612;28;20056;-81
2023/09/02 05:06:14;;;;;;;22.25;8.15;;;18.00;99.90;;;;;;5040524;28;20047;-80
2023/09/02 05:08:43;;;;;;;26.98;9.27;;;18.00;99.90;;;;;;5057812;28;20045;-80
2023/09/02 05:11:12;;;;;;;28.85;8.88;;;18.00;99.90;;;;;;5043866;28;20045;-80
2023/09/02 05:13:40;;;;;;;24.50;8.30;;;18.00;99.90;;;;;;5038698;28;20048;-82
2023/09/02 05:16:07;;;;;;;26.95;8.60;;;18.00;99.90;;;;;;5035868;28;20105;-80
2023/09/02 05:18:36;;;;;;;23.30;8.43;;;18.00;99.90;;;;;;5039129;28;20064;-82
2023/09/02 05:21:03;;;;;;;26.38;8.60;;;18.00;99.90;;;;;;5049569;28;20055;-83
2023/09/02 05:23:30;;;;;;;22.27;8.25;;;18.00;99.90;;;;;;5058454;28;20070;-82
2023/09/02 05:25:57;;;;;;;24.70;8.27;;;18.00;99.90;;;;;;5058459;28;20459;-82
2023/09/02 05:31:10;;;;;;;29.85;8.70;;;18.00;99.90;;;;;;5049905;28;20055;-82
2023/09/02 05:33:37;;;;;;;29.65;8.88;;;18.00;99.90;;;;;;5036997;28;20047;-80
2023/09/02 05:36:04;;;;;;;26.48;9.32;;;18.00;99.90;;;;;;5031393;28;20048;-80
2023/09/02 05:41:16;;;;;;;27.27;9.18;;;18.00;99.90;;;;;;5046694;28;20052;-82
2023/09/02 05:43:43;;;;;;;30.65;9.05;;;18.00;99.90;;;;;;5040729;28;20163;-81
2023/09/02 05:46:10;;;;;;;27.20;9.32;;;18.10;99.90;;;;;;5049278;28;20368;-80
2023/09/02 05:48:39;;;;;;;25.33;9.45;;;18.10;99.90;;;;;;5037222;28;20052;-81
2023/09/02 05:51:05;;;;;;;27.17;9.13;;;18.20;99.90;;;;;;5068294;28;20121;-80
2023/09/02 05:53:32;;;;;;;29.17;9.05;;;18.20;99.90;;;;;;5094567;28;20032;-81
2023/09/02 05:55:59;;;;;;;28.63;9.35;;;18.20;99.90;;;;;;5092145;28;20143;-80
2023/09/02 05:58:28;;;;;;;30.50;10.05;;;18.20;99.90;;;;;;5074276;28;20041;-82
2023/09/02 06:00:54;;;;;;;32.45;10.68;;;18.10;99.90;;;;;;5070900;28;20101;-80
2023/09/02 06:03:21;;;;;;;29.42;10.23;;;18.10;99.90;;;;;;5074129;28;20074;-80
2023/09/02 06:05:48;;;;;;;27.80;9.55;;;18.20;99.90;;;;;;5075493;28;20123;-79
2023/09/02 06:11:02;;;;;;;28.80;10.07;;;18.20;99.90;;;;;;5081553;28;20052;-81
2023/09/02 06:13:28;;;;;;;30.33;9.57;;;18.20;99.90;;;;;;5085776;28;20115;-81
2023/09/02 06:15:55;;;;;;;29.25;10.52;;;18.30;99.90;;;;;;5097792;28;20054;-82
2023/09/02 06:18:23;;;;;;;30.88;11.27;;;18.30;99.90;;;;;;5091363;28;20041;-80
2023/09/02 06:20:49;;;;;;;30.30;9.55;;;18.30;99.90;;;;;;5073255;28;20451;-80
2023/09/02 06:23:16;;;;;;;33.80;10.32;;;18.30;99.90;;;;;;5070812;28;20473;-82
2023/09/02 06:25:43;;;;;;;29.27;10.15;;;18.30;99.90;;;;;;5084017;28;20408;-81
2023/09/02 06:28:11;;;;;;;33.80;10.18;;;18.30;99.90;;;;;;5085976;28;20534;-81
2023/09/02 06:30:38;;;;;;;30.92;9.52;;;18.40;99.90;;;;;;5084526;28;20052;-80
2023/09/02 06:33:05;;;;;;;34.17;10.23;;;18.30;99.90;;;;;;5083978;28;20051;-80
2023/09/02 06:35:31;;;;;;;29.65;10.57;;;18.40;99.90;;;;;;5090016;28;20363;-83
2023/09/02 06:37:58;;;;;;;25.25;9.50;;;18.40;99.90;;;;;;5074607;28;20047;-82
2023/09/02 06:40:25;;;;;;;29.23;10.48;;;18.40;99.90;;;;;;5091588;28;20032;-80
2023/09/02 06:42:51;;;;;;;31.60;11.00;;;18.40;99.90;;;;;;5094872;28;20119;-82
2023/09/02 06:45:18;;;;;;;32.30;11.00;;;18.40;99.90;;;;;;5078947;28;20455;-81
2023/09/02 06:47:45;;;;;;;32.55;10.38;;;18.40;99.90;;;;;;5065716;28;20475;-82
2023/09/02 06:50:12;;;;;;;30.02;10.25;;;18.50;99.90;;;;;;5085603;28;20056;-80
2023/09/02 06:52:38;;;;;;;28.88;9.63;;;18.50;99.90;;;;;;5053080;28;20041;-82
2023/09/02 06:55:05;;;;;;;29.23;10.30;;;18.60;99.90;;;;;;5073901;28;20510;-80
2023/09/02 06:57:33;;;;;;;28.58;10.65;;;18.60;99.90;;;;;;5056919;28;20106;-82
2023/09/02 06:59:59;;;;;;;28.98;10.25;;;18.60;99.90;;;;;;5066902;28;20467;-83
2023/09/02 07:02:26;;;;;;;29.00;9.98;;;18.70;99.90;;;;;;5056537;28;20079;-81
2023/09/02 07:04:53;;;;;;;29.70;10.63;;;18.80;99.90;;;;;;5056108;28;20102;-81
2023/09/02 07:07:20;;;;;;;32.15;11.57;;;18.80;99.90;;;;;;5047080;28;20045;-81
2023/09/02 07:09:47;;;;;;;30.88;11.60;;;18.90;99.90;;;;;;5061494;28;20059;-81
2023/09/02 07:12:15;;;;;;;32.53;11.88;;;18.90;99.90;;;;;;5068810;28;20063;-80
2023/09/02 07:14:42;;;;;;;29.98;11.93;;;18.90;99.90;;;;;;5041664;28;20467;-83
2023/09/02 07:17:08;;;;;;;32.85;12.43;;;19.00;99.90;;;;;;5078351;28;20036;-82
2023/09/02 07:19:35;;;;;;;30.33;10.25;;;19.00;99.90;;;;;;5078291;28;20131;-80
2023/09/02 07:22:02;;;;;;;32.17;12.40;;;19.10;99.90;;;;;;5063701;28;20060;-81
2023/09/02 07:24:28;;;;;;;34.30;11.77;;;19.10;99.90;;;;;;5066376;28;20080;-81
2023/09/02 07:26:55;;;;;;;33.13;11.40;;;19.20;99.90;;;;;;5062252;28;20051;-79
2023/09/02 07:29:22;;;;;;;33.42;11.88;;;19.10;99.90;;;;;;5068046;28;20144;-81
2023/09/02 07:31:48;;;;;;;34.35;12.40;;;19.10;99.90;;;;;;5054357;28;20123;-80
2023/09/02 07:34:15;;;;;;;27.42;10.63;;;19.00;99.90;;;;;;5065960;28;20045;-80
2023/09/02 07:36:42;;;;;;;29.13;11.45;;;19.00;99.90;;;;;;5078302;28;20043;-81
2023/09/02 07:39:09;;;;;;;31.13;11.45;;;19.00;99.90;;;;;;5053585;28;20041;-80
2023/09/02 07:41:35;;;;;;;28.88;10.35;;;19.20;99.90;;;;;;5070314;28;20128;-80
2023/09/02 07:44:02;;;;;;;29.25;10.63;;;19.40;99.90;;;;;;5064238;28;20049;-78
2023/09/02 07:46:29;;;;;;;29.10;10.75;;;19.50;99.90;;;;;;5059683;28;20138;-79
2023/09/02 07:48:57;;;;;;;26.25;10.70;;;19.60;99.90;;;;;;5042594;28;20148;-81
2023/09/02 07:51:23;;;;;;;29.15;10.70;;;19.70;99.90;;;;;;5067282;28;20057;-79
2023/09/02 07:53:50;;;;;;;26.92;11.30;;;19.70;99.90;;;;;;5076953;28;20090;-80
2023/09/02 07:56:16;;;;;;;24.88;10.07;;;19.60;99.90;;;;;;5055677;28;20045;-81
2023/09/02 07:58:46;;;;;;;22.65;9.35;;;19.60;99.90;;;;;;5067943;28;20048;-78
2023/09/02 08:01:13;;;;;;;25.17;9.43;;;19.60;99.90;;;;;;5044959;28;20045;-83
2023/09/02 08:03:40;;;;;;;27.70;11.02;;;19.70;99.90;;;;;;5068799;28;20041;-81
2023/09/02 08:06:07;;;;;;;26.90;9.68;;;19.70;99.90;;;;;;5072395;28;20127;-80
2023/09/02 08:08:33;;;;;;;24.75;9.77;;;19.70;99.90;;;;;;5076613;28;20044;-80
2023/09/02 08:11:00;;;;;;;24.70;9.82;;;19.80;99.90;;;;;;5077180;28;20044;-81
2023/09/02 08:13:27;;;;;;;27.35;9.88;;;19.70;99.90;;;;;;5053238;28;20136;-80
2023/09/02 08:15:53;;;;;;;25.63;9.85;;;19.70;99.90;;;;;;5051583;28;20041;-82
2023/09/02 08:18:20;;;;;;;21.67;9.15;;;19.70;99.90;;;;;;5045102;28;20056;-82
2023/09/02 08:20:47;;;;;;;22.67;9.23;;;19.70;99.90;;;;;;5076154;28;20417;-82
2023/09/02 08:23:14;;;;;;;22.95;8.95;;;19.70;99.90;;;;;;5075713;28;20459;-81
2023/09/02 08:25:40;;;;;;;22.80;8.32;;;19.80;99.90;;;;;;5044989;28;20052;-85
2023/09/02 08:30:39;;;;;;;21.52;9.13;;;19.80;99.90;;;;;;5059244;28;20486;-85
2023/09/02 08:33:08;;;;;;;26.63;8.73;;;19.90;99.90;;;;;;5062653;28;20367;-85
2023/09/02 08:35:34;;;;;;;22.00;9.05;;;19.90;99.90;;;;;;5076629;28;20029;-80
2023/09/02 08:38:03;;;;;;;15.77;7.80;;;20.00;99.90;;;;;;5076763;28;20045;-82
2023/09/02 08:40:30;;;;;;;20.08;8.18;;;20.00;99.90;;;;;;5037195;28;20112;-82
2023/09/02 08:42:57;;;;;;;24.42;9.45;;;20.00;99.90;;;;;;5076578;28;20074;-83
2023/09/02 08:45:23;;;;;;;17.90;7.20;;;20.10;99.90;;;;;;5076537;28;20426;-80
2023/09/02 08:47:50;;;;;;;19.98;7.90;;;20.10;99.90;;;;;;5058454;28;20417;-82
2023/09/02 08:50:17;;;;;;;25.33;8.23;;;20.10;99.90;;;;;;5082937;28;20048;-80
2023/09/02 08:52:44;;;;;;;18.10;7.50;;;20.30;99.90;;;;;;5047569;28;20114;-84
2023/09/02 08:55:11;;;;;;;19.98;8.30;;;20.40;99.90;;;;;;5058109;28;20068;-83
2023/09/02 08:57:38;;;;;;;24.85;7.72;;;20.30;99.90;;;;;;5043789;28;20517;-80
2023/09/02 09:00:05;;;;;;;20.95;8.32;;;20.40;99.90;;;;;;5056618;28;20045;-83
2023/09/02 09:02:32;;;;;;;20.73;7.78;;;20.40;99.90;;;;;;5078080;28;20131;-83
2023/09/02 09:05:01;;;;;;;19.48;7.32;;;20.40;99.90;;;;;;5077285;28;20039;-84
2023/09/02 09:07:29;;;;;;;16.17;7.30;;;20.50;99.90;;;;;;5076392;28;20139;-82
2023/09/02 09:09:56;;;;;;;15.23;6.97;;;20.40;99.90;;;;;;5080661;28;20516;-79
2023/09/02 09:12:22;;;;;;;13.68;6.10;;;20.40;99.90;;;;;;5069448;28;20059;-84
2023/09/02 09:14:49;;;;;;;16.77;7.10;;;20.60;99.90;;;;;;5067557;28;20071;-81
2023/09/02 09:17:18;;;;;;;15.57;6.57;;;20.80;99.90;;;;;;5069839;28;20033;-81
2023/09/02 09:19:45;;;;;;;13.98;6.53;;;20.90;99.90;;;;;;5073744;28;20041;-80
2023/09/02 09:22:11;;;;;;;16.85;5.82;;;21.00;99.90;;;;;;5063206;28;20064;-83
2023/09/02 09:24:38;;;;;;;17.63;5.40;;;21.10;99.90;;;;;;5072193;28;20082;-84
2023/09/02 09:27:10;;;;;;;11.35;4.45;;;21.40;99.90;;;;;;5063277;28;20043;-83
2023/09/02 09:29:36;;;;;;;9.48;3.92;;;21.60;99.90;;;;;;5096063;28;20036;-82
2023/09/02 09:32:03;;;;;;;15.73;4.43;;;21.70;99.90;;;;;;5072431;28;20037;-81
2023/09/02 09:34:30;;;;;;;13.10;3.63;;;21.70;99.90;;;;;;5068537;28;20093;-81
2023/09/02 09:36:57;;;;;;;8.93;3.08;;;21.70;99.90;;;;;;5095706;28;20055;-81
2023/09/02 09:39:24;;;;;;;6.85;2.85;;;21.60;99.90;;;;;;5086682;28;20063;-81
2023/09/02 09:41:51;;;;;;;6.63;2.50;;;21.70;99.90;;;;;;5054333;28;20129;-80
2023/09/02 09:44:17;;;;;;;7.63;2.72;;;21.70;99.90;;;;;;5068048;28;20045;-82
2023/09/02 09:46:44;;;;;;;8.50;3.13;;;21.80;99.90;;;;;;5064409;28;20105;-83
2023/09/02 09:49:11;;;;;;;8.75;3.28;;;21.80;99.90;;;;;;5056022;28;20041;-81
2023/09/02 09:51:38;;;;;;;10.07;4.40;;;21.80;99.90;;;;;;5066894;28;20070;-84
2023/09/02 09:54:06;;;;;;;10.35;4.03;;;21.90;99.90;;;;;;5074801;28;20037;-84
2023/09/02 09:56:32;;;;;;;11.48;4.10;;;22.00;99.90;;;;;;5055403;28;20041;-81
2023/09/02 09:59:00;;;;;;;11.07;3.85;;;22.10;99.90;;;;;;5050213;28;20044;-82
2023/09/02 10:01:27;;;;;;;8.00;3.30;;;22.50;99.90;;;;;;5073392;28;20115;-82
2023/09/02 10:03:55;;;;;;;10.40;3.55;;;22.80;99.90;;;;;;5058102;28;20416;-82
2023/09/02 10:06:21;;;;;;;8.32;3.20;;;23.10;99.90;;;;;;5075928;28;20068;-83
2023/09/02 10:08:48;;;;;;;11.15;3.88;;;23.40;99.90;;;;;;5049355;28;20093;-83
2023/09/02 10:11:15;;;;;;;8.00;3.45;;;23.60;99.90;;;;;;5043036;28;20072;-82
2023/09/02 10:13:42;;;;;;;8.93;2.97;;;23.60;99.90;;;;;;5074074;28;20072;-82
2023/09/02 10:16:08;;;;;;;9.15;3.20;;;23.30;99.90;;;;;;5072135;28;20047;-82
2023/09/02 10:18:35;;;;;;;10.45;3.47;;;23.00;99.90;;;;;;5060977;28;20119;-81
2023/09/02 10:21:02;;;;;;;8.18;2.97;;;22.80;99.90;;;;;;5061860;28;20037;-82
2023/09/02 10:23:29;;;;;;;10.20;2.83;;;22.70;99.90;;;;;;5037650;28;20041;-82
2023/09/02 10:25:55;;;;;;;6.80;2.50;;;22.60;99.90;;;;;;5065969;28;20340;-79
2023/09/02 10:28:22;;;;;;;8.52;2.80;;;22.60;99.90;;;;;;5073991;28;20352;-82
2023/09/02 10:30:51;;;;;;;5.50;2.30;;;22.80;99.90;;;;;;5049358;28;20357;-83
2023/09/02 10:33:17;;;;;;;8.30;2.80;;;22.90;99.90;;;;;;5043951;28;20049;-84
2023/09/02 10:35:45;;;;;;;5.68;2.38;;;22.90;99.90;;;;;;5074608;28;20068;-85
2023/09/02 10:38:11;;;;;;;6.35;2.42;;;22.70;99.90;;;;;;5058221;28;20439;-84
2023/09/02 10:40:38;;;;;;;10.02;2.42;;;22.60;99.90;;;;;;5051133;28;20457;-82
2023/09/02 10:43:05;;;;;;;8.73;2.40;;;22.50;99.90;;;;;;5045081;28;20041;-82
2023/09/02 10:45:31;;;;;;;8.77;2.30;;;22.50;99.90;;;;;;5059834;28;20110;-84
2023/09/02 10:47:58;;;;;;;8.45;2.08;;;22.50;99.90;;;;;;5059185;28;20048;-82
2023/09/02 10:50:25;;;;;;;9.13;2.63;;;22.70;99.90;;;;;;5077604;28;20131;-84
2023/09/02 10:52:52;;;;;;;5.68;2.00;;;22.90;99.90;;;;;;5070150;28;20037;-81
2023/09/02 10:55:39;;;;;;;5.35;1.90;;;23.00;99.90;;;;;;5072945;28;20473;-83
2023/09/02 10:58:07;;;;;;;5.70;1.88;;;23.00;99.90;;;;;;5068217;28;20046;-83
2023/09/02 11:00:33;;;;;;;6.55;1.60;;;23.10;99.90;;;;;;5082067;28;20056;-84
2023/09/02 11:03:00;;;;;;;10.88;1.83;;;23.20;99.90;;;;;;5057176;28;20519;-83
2023/09/02 11:05:27;;;;;;;6.82;2.03;;;23.30;99.90;;;;;;5054446;28;20051;-83
2023/09/02 11:07:56;;;;;;;6.80;1.77;;;23.90;99.90;;;;;;5036292;28;20053;-83
2023/09/02 11:10:23;;;;;;;7.45;1.98;;;24.50;99.90;;;;;;5054258;28;20045;-80
2023/09/02 11:12:49;;;;;;;6.25;1.85;;;25.20;99.90;;;;;;5051120;28;20098;-82
2023/09/02 11:15:16;;;;;;;7.97;2.00;;;25.30;99.90;;;;;;5053348;28;20048;-81
2023/09/02 11:17:44;;;;;;;7.82;1.92;;;25.10;99.90;;;;;;5046385;28;20066;-84
2023/09/02 11:20:11;;;;;;;5.40;1.80;;;24.70;99.90;;;;;;5081733;28;20069;-85
2023/09/02 11:22:38;;;;;;;6.35;2.05;;;24.50;99.90;;;;;;5054139;28;20044;-83
2023/09/02 11:25:04;;;;;;;6.05;2.17;;;25.10;99.90;;;;;;5036185;28;20119;-80
2023/09/02 11:30:01;;;;;;;6.40;2.28;;;25.30;99.90;;;;;;5063046;28;20073;-82
2023/09/02 11:32:27;;;;;;;8.88;2.05;;;25.20;99.90;;;;;;5054083;28;20129;-83
2023/09/02 11:34:54;;;;;;;4.90;1.58;;;25.20;99.90;;;;;;5053565;28;20107;-82
2023/09/02 11:37:22;;;;;;;5.03;1.80;;;25.10;99.90;;;;;;5076894;28;20036;-80
2023/09/02 11:39:49;;;;;;;5.43;2.03;;;24.80;99.90;;;;;;5033714;28;20037;-83
2023/09/02 11:42:16;;;;;;;6.07;1.80;;;24.50;99.90;;;;;;5036750;28;20126;-82
2023/09/02 11:44:43;;;;;;;7.10;1.73;;;24.30;99.90;;;;;;5058453;28;20134;-85
2023/09/02 11:47:10;;;;;;;6.85;1.85;;;24.60;99.90;;;;;;5069659;28;20045;-82
2023/09/02 11:49:37;;;;;;;6.15;1.77;;;24.90;99.90;;;;;;5058530;28;20045;-82
2023/09/02 11:52:04;;;;;;;5.35;1.65;;;25.60;99.90;;;;;;5047522;28;20486;-82
2023/09/02 11:54:30;;;;;;;6.07;1.70;;;26.00;99.90;;;;;;5074992;28;20490;-84
2023/09/02 11:56:57;;;;;;;6.82;1.88;;;26.80;99.90;;;;;;5067670;28;20420;-81
2023/09/02 11:59:24;;;;;;;4.50;1.70;;;27.60;99.90;;;;;;5078030;28;20044;-81
2023/09/02 12:01:55;;;;;;;6.70;1.85;;;28.30;99.90;;;;;;5072013;28;20382;-82
2023/09/02 12:04:22;;;;;;;4.15;1.50;;;28.20;99.90;;;;;;5042672;28;20098;-82
2023/09/02 12:06:49;;;;;;;12.07;2.00;;;28.00;99.90;;;;;;5058981;28;20045;-84
2023/09/02 12:09:15;;;;;;;4.97;1.73;;;28.30;99.90;;;;;;5052502;28;20039;-80
2023/09/02 12:11:42;;;;;;;5.57;1.58;;;28.80;99.90;;;;;;5044911;28;20033;-82
2023/09/02 12:14:09;;;;;;;5.65;1.80;;;29.60;99.90;;;;;;5050213;28;20064;-80
2023/09/02 12:16:35;;;;;;;4.85;1.88;;;29.60;99.90;;;;;;5077101;28;20068;-83
2023/09/02 12:19:02;;;;;;;8.95;2.20;;;29.40;99.90;;;;;;5050311;28;20131;-83
2023/09/02 12:21:29;;;;;;;4.38;1.55;;;29.60;99.90;;;;;;5052827;28;20070;-80
2023/09/02 12:23:55;;;;;;;5.15;1.60;;;29.80;99.90;;;;;;5039370;28;20136;-81
2023/09/02 12:26:22;;;;;;;4.55;1.60;;;29.70;99.90;;;;;;5066646;28;20068;-83
2023/09/02 12:31:54;;;;;;;4.30;1.50;;;29.80;99.90;;;;;;5055474;28;20040;-81
2023/09/02 12:34:20;;;;;;;6.68;2.00;;;29.90;99.90;;;;;;5065298;28;20777;-83
2023/09/02 12:36:47;;;;;;;5.82;1.67;;;30.30;99.90;;;;;;5076860;28;20032;-80
2023/09/02 12:39:13;;;;;;;4.35;1.50;;;30.70;99.90;;;;;;5063388;28;20112;-83
2023/09/02 12:41:41;;;;;;;6.68;1.58;;;30.70;99.90;;;;;;5061756;28;20092;-79
2023/09/02 12:44:08;;;;;;;6.07;1.77;;;29.50;99.90;;;;;;5056993;28;20056;-81
2023/09/02 12:46:35;;;;;;;6.78;1.92;;;29.60;99.90;;;;;;5068041;28;20051;-79
2023/09/02 12:49:01;;;;;;;5.35;1.60;;;29.60;99.90;;;;;;5073499;28;20107;-85
2023/09/02 12:51:29;;;;;;;5.45;1.85;;;29.10;99.90;;;;;;5087864;28;20148;-82
2023/09/02 12:53:56;;;;;;;5.97;1.77;;;28.60;99.90;;;;;;5084359;28;20119;-81
2023/09/02 12:56:22;;;;;;;7.68;1.95;;;28.10;99.90;;;;;;5088942;28;20509;-83
2023/09/02 13:01:35;;;;;;;5.18;1.73;;;28.50;99.90;;;;;;5094493;28;20056;-83